Valentine, Texas
Current Conditions -  °F | °C
As of 3:35 AM on Friday 28 Nov 2014 (Local Time) from KMRF Reporting Station
Clear Clear  
Wind Chill: -7°   Ceiling: Unl
Heat Index: -3°   Visibility: 10mi
Dew Point: -7°   Wind: 6mph
Humidity: 74%   Direction: 340°NNW
Pressure: 30.33"   Gusts: NA
Location:  30.59°N, 104.5°W
Report Text: KMRF 280935Z AUTO 34005KT 10SM CLR M03/M07 A3033 RMK AO1
Loading
Personal Weather Stations






























Interactive Weather Map New forecast layout! Learn more

10-Day Weather Forecast

Advertisements
Track Severe Weather on mobile